Northwest Sanderling — VNVZ — position and weather

sailwx.info

Track history (hours):
 
Tides and Currents Weather Stations Pressure Air Temp Water Temp Dewpoint Dewpoint Depression Visibility Wind Speed Wind Dir Waves Ship Positions

Northwest Sanderling

Last reported at 2017-Feb-25 00:33 UTC. Time now 2017-Feb-25 00:48 UTC.
Position S 19°49' E 117°12'.

Length 272 m; beam 47.2 m; draft 11.4 m.

Type: Ship (hazmat cat A). MMSI: 503000050.

Date/timePositionNaut miles runAvg speedWind from/ knotsBaromVisibWave heightAir tempDewpointWater temp
2017-Feb-25 00:33S 19°49' E 117°12'1313.2
2017-Feb-24 23:33S 20°02' E 117°07'1312.7
2017-Feb-24 22:33S 19°50' E 117°11'1111.2
2017-Feb-24 21:34S 19°40' E 117°15'1414.4
2017-Feb-24 20:33S 19°53' E 117°10'8 8.3
2017-Feb-24 19:33S 20°01' E 117°09'1313.4
2017-Feb-24 18:33S 19°48' E 117°12'1212.2
2017-Feb-24 17:33S 19°37' E 117°17'1414.0
2017-Feb-24 16:33S 19°51' E 117°13'1211.9
2017-Feb-24 15:32S 20°03' E 117°12'1313.6
2017-Feb-24 14:33S 19°50' E 117°15'9 9.0
2017-Feb-24 13:33S 19°41' E 117°18'1413.9
2017-Feb-24 12:33S 19°53' E 117°11'1212.4
2017-Feb-24 11:33S 20°05' E 117°06'1413.8
2017-Feb-24 10:33S 19°52' E 117°12'1414.3
2017-Feb-24 09:33S 19°38' E 117°16'1111.1
2017-Feb-24 08:33S 19°49' E 117°12'1413.8
2017-Feb-24 07:33S 20°01' E 117°07'9 9.5
2017-Feb-24 06:33S 19°53' E 117°11'1413.6
2017-Feb-24 05:33S 19°39' E 117°14'10 9.8
2017-Feb-24 04:33S 19°49' E 117°12'1414.1
2017-Feb-24 03:33S 20°03' E 117°08'3 5.4
2017-Feb-24 03:00S 20°00' E 117°06'919.7 140 / 101012.510.8 31.219.629.9
2017-Feb-24 02:32S 19°55' E 117°14'1313.5
2017-Feb-24 01:33S 19°42' E 117°17'1 1.4
2017-Feb-24 00:33S 19°43' E 117°16'1414.0
2017-Feb-23 23:33S 19°56' E 117°10'1 1.0
2017-Feb-23 22:33S 19°56' E 117°11'1413.8
2017-Feb-23 21:33S 19°42' E 117°14'1110.8
2017-Feb-23 20:33S 19°52' E 117°10'6 6.0
2017-Feb-23 19:33S 19°58' E 117°09'1313.5
2017-Feb-23 18:33S 19°45' E 117°12'9 8.6
2017-Feb-23 17:33S 19°37' E 117°16'1514.6
2017-Feb-23 16:33S 19°51' E 117°09'1211.6
2017-Feb-23 15:30S 20°02' E 117°06'1313.3
2017-Feb-23 14:33S 19°50' E 117°10'1413.3
2017-Feb-23 13:32S 19°37' E 117°13'9 8.9
2017-Feb-23 12:33S 19°46' E 117°13'1514.5
2017-Feb-23 11:33S 19°59' E 117°06'2 2.0
2017-Feb-23 10:32S 19°60' E 117°08'1211.4
2017-Feb-23 09:30S 19°49' E 117°11'1313.8
2017-Feb-23 08:33S 20°01' E 117°05'6 5.8
2017-Feb-23 07:33S 19°56' E 117°09'1414.3
2017-Feb-23 06:33S 19°42' E 117°11'2 2.2
2017-Feb-23 05:32S 19°42' E 117°14'1513.8
2017-Feb-23 04:28S 19°56' E 117°08'4 4.1
2017-Feb-23 03:33S 20°00' E 117°08'1414.2
2017-Feb-23 02:33S 19°47' E 117°12'3 2.9
2017-Feb-23 01:33S 19°46' E 117°15'1413.8
2017-Feb-23 00:32S 19°60' E 117°11'8 7.7
2017-Feb-22 23:33S 19°52' E 117°11'1414.0
2017-Feb-22 22:32S 19°39' E 117°16'1412.8
2017-Feb-22 21:25S 19°52' E 117°09'1011.9
2017-Feb-22 20:33S 20°01' E 117°05'1614.5
2017-Feb-22 19:29S 19°47' E 117°11'910.0
2017-Feb-22 18:34S 19°39' E 117°16'2711.9
2017-Feb-22 16:15S 20°04' E 117°06'1414.6
2017-Feb-22 15:16S 19°50' E 117°09'1114.6
2017-Feb-22 14:32S 19°40' E 117°12'17 8.2
2017-Feb-22 12:31S 19°56' E 117°07'5 4.8
2017-Feb-22 11:30S 20°01' E 117°08'1714.5
2017-Feb-22 10:19S 19°45' E 117°15'7 1.5
2017-Feb-22 05:30S 19°52' E 117°14'1313.9
2017-Feb-22 04:33S 20°02' E 117°04'1414.0
2017-Feb-22 03:33S 20°11' E 116°53'1413.0
2017-Feb-22 02:28S 20°22' E 116°44'7 6.0
2017-Feb-22 01:14S 20°29' E 116°45'0 0.0
2017-Feb-21 20:05S 20°30' E 116°45'0 0.0
2017-Feb-21 08:11S 20°30' E 116°45'0 0.0
2017-Feb-20 21:11S 20°29' E 116°45'0 0.0
2017-Feb-20 20:29S 20°29' E 116°45'0 0.0
2017-Feb-20 19:23S 20°29' E 116°45'0 0.0
2017-Feb-20 11:05S 20°30' E 116°45'0 0.0
2017-Feb-20 10:17S 20°30' E 116°45'0 0.0
2017-Feb-19 16:29S 20°30' E 116°45'0 0.0
2017-Feb-19 09:17S 20°30' E 116°45'0 0.0
2017-Feb-19 07:17S 20°30' E 116°45'  
2017-Feb-15 05:23S 20°30' E 116°45'13 6.4
2017-Feb-15 03:18S 20°17' E 116°42'3 3.4
2017-Feb-15 02:26S 20°14' E 116°43'  
Track history (hours):
 
Tides and Currents Weather Stations Pressure Air Temp Water Temp Dewpoint Dewpoint Depression Visibility Wind Speed Wind Dir Waves Ship Positions

Northwest Sanderling

Last reported at 2017-Feb-25 00:33 UTC. Time now 2017-Feb-25 00:48 UTC.
Position S 19°49' E 117°12'.

Length 272 m; beam 47.2 m; draft 11.4 m.

Type: Ship (hazmat cat A). MMSI: 503000050.

Date/timePositionNaut miles runAvg speedWind from/ knotsBaromVisibWave heightAir tempDewpointWater temp
2017-Feb-25 00:33S 19°49' E 117°12'1313.2
2017-Feb-24 23:33S 20°02' E 117°07'1312.7
2017-Feb-24 22:33S 19°50' E 117°11'1111.2
2017-Feb-24 21:34S 19°40' E 117°15'1414.4
2017-Feb-24 20:33S 19°53' E 117°10'8 8.3
2017-Feb-24 19:33S 20°01' E 117°09'1313.4
2017-Feb-24 18:33S 19°48' E 117°12'1212.2
2017-Feb-24 17:33S 19°37' E 117°17'1414.0
2017-Feb-24 16:33S 19°51' E 117°13'1211.9
2017-Feb-24 15:32S 20°03' E 117°12'1313.6
2017-Feb-24 14:33S 19°50' E 117°15'9 9.0
2017-Feb-24 13:33S 19°41' E 117°18'1413.9
2017-Feb-24 12:33S 19°53' E 117°11'1212.4
2017-Feb-24 11:33S 20°05' E 117°06'1413.8
2017-Feb-24 10:33S 19°52' E 117°12'1414.3
2017-Feb-24 09:33S 19°38' E 117°16'1111.1
2017-Feb-24 08:33S 19°49' E 117°12'1413.8
2017-Feb-24 07:33S 20°01' E 117°07'9 9.5
2017-Feb-24 06:33S 19°53' E 117°11'1413.6
2017-Feb-24 05:33S 19°39' E 117°14'10 9.8
2017-Feb-24 04:33S 19°49' E 117°12'1414.1
2017-Feb-24 03:33S 20°03' E 117°08'3 5.4
2017-Feb-24 03:00S 20°00' E 117°06'919.7 140 / 101012.510.8 31.219.629.9
2017-Feb-24 02:32S 19°55' E 117°14'1313.5
2017-Feb-24 01:33S 19°42' E 117°17'1 1.4
2017-Feb-24 00:33S 19°43' E 117°16'1414.0
2017-Feb-23 23:33S 19°56' E 117°10'1 1.0
2017-Feb-23 22:33S 19°56' E 117°11'1413.8
2017-Feb-23 21:33S 19°42' E 117°14'1110.8
2017-Feb-23 20:33S 19°52' E 117°10'6 6.0
2017-Feb-23 19:33S 19°58' E 117°09'1313.5
2017-Feb-23 18:33S 19°45' E 117°12'9 8.6
2017-Feb-23 17:33S 19°37' E 117°16'1514.6
2017-Feb-23 16:33S 19°51' E 117°09'1211.6
2017-Feb-23 15:30S 20°02' E 117°06'1313.3
2017-Feb-23 14:33S 19°50' E 117°10'1413.3
2017-Feb-23 13:32S 19°37' E 117°13'9 8.9
2017-Feb-23 12:33S 19°46' E 117°13'1514.5
2017-Feb-23 11:33S 19°59' E 117°06'2 2.0
2017-Feb-23 10:32S 19°60' E 117°08'1211.4
2017-Feb-23 09:30S 19°49' E 117°11'1313.8
2017-Feb-23 08:33S 20°01' E 117°05'6 5.8
2017-Feb-23 07:33S 19°56' E 117°09'1414.3
2017-Feb-23 06:33S 19°42' E 117°11'2 2.2
2017-Feb-23 05:32S 19°42' E 117°14'1513.8
2017-Feb-23 04:28S 19°56' E 117°08'4 4.1
2017-Feb-23 03:33S 20°00' E 117°08'1414.2
2017-Feb-23 02:33S 19°47' E 117°12'3 2.9
2017-Feb-23 01:33S 19°46' E 117°15'1413.8
2017-Feb-23 00:32S 19°60' E 117°11'8 7.7
2017-Feb-22 23:33S 19°52' E 117°11'1414.0
2017-Feb-22 22:32S 19°39' E 117°16'1412.8
2017-Feb-22 21:25S 19°52' E 117°09'1011.9
2017-Feb-22 20:33S 20°01' E 117°05'1614.5
2017-Feb-22 19:29S 19°47' E 117°11'910.0
2017-Feb-22 18:34S 19°39' E 117°16'2711.9
2017-Feb-22 16:15S 20°04' E 117°06'1414.6
2017-Feb-22 15:16S 19°50' E 117°09'1114.6
2017-Feb-22 14:32S 19°40' E 117°12'17 8.2
2017-Feb-22 12:31S 19°56' E 117°07'5 4.8
2017-Feb-22 11:30S 20°01' E 117°08'1714.5
2017-Feb-22 10:19S 19°45' E 117°15'7 1.5
2017-Feb-22 05:30S 19°52' E 117°14'1313.9
2017-Feb-22 04:33S 20°02' E 117°04'1414.0
2017-Feb-22 03:33S 20°11' E 116°53'1413.0
2017-Feb-22 02:28S 20°22' E 116°44'7 6.0
2017-Feb-22 01:14S 20°29' E 116°45'0 0.0
2017-Feb-21 20:05S 20°30' E 116°45'0 0.0
2017-Feb-21 08:11S 20°30' E 116°45'0 0.0
2017-Feb-20 21:11S 20°29' E 116°45'0 0.0
2017-Feb-20 20:29S 20°29' E 116°45'0 0.0
2017-Feb-20 19:23S 20°29' E 116°45'0 0.0
2017-Feb-20 11:05S 20°30' E 116°45'0 0.0
2017-Feb-20 10:17S 20°30' E 116°45'0 0.0
2017-Feb-19 16:29S 20°30' E 116°45'0 0.0
2017-Feb-19 09:17S 20°30' E 116°45'0 0.0
2017-Feb-19 07:17S 20°30' E 116°45'  
2017-Feb-15 05:23S 20°30' E 116°45'13 6.4
2017-Feb-15 03:18S 20°17' E 116°42'3 3.4
2017-Feb-15 02:26S 20°14' E 116°43'  

Dump ship's entire track history